createdAt,value
2023-03-11T00:03:31.594Z,99484.47
2023-03-11T00:08:35.719Z,99496.34
2023-03-11T00:13:39.314Z,99505.41
2023-03-11T00:18:42.136Z,99514.72
2023-03-11T00:23:46.409Z,99528.81
2023-03-11T00:28:49.564Z,99544.00
2023-03-11T00:33:52.499Z,99543.03
2023-03-11T00:38:56.655Z,99556.13
2023-03-11T00:43:59.431Z,99570.47
2023-03-11T00:49:02.286Z,99580.06
2023-03-11T00:54:06.707Z,99581.31
2023-03-11T00:59:09.739Z,99598.31
2023-03-11T01:04:12.640Z,99596.53
2023-03-11T01:09:16.851Z,99612.53
2023-03-11T01:14:19.765Z,99618.13
2023-03-11T01:19:22.538Z,99632.34
2023-03-11T01:24:26.658Z,99637.66
2023-03-11T01:29:29.449Z,99648.81
2023-03-11T01:34:33.504Z,99652.28
2023-03-11T01:39:37.574Z,99652.22
2023-03-11T01:44:40.331Z,99659.13
2023-03-11T01:49:43.588Z,99662.44
2023-03-11T01:54:49.599Z,99671.81
2023-03-11T01:59:59.347Z,99672.13
2023-03-11T02:05:03.991Z,99677.69
2023-03-11T02:10:10.588Z,99687.22
2023-03-11T02:15:14.347Z,99702.91
2023-03-11T02:20:28.509Z,99720.22
2023-03-11T02:25:40.304Z,99734.00
2023-03-11T02:30:45.751Z,99738.28
2023-03-11T02:35:48.587Z,99747.28
2023-03-11T02:40:55.600Z,99752.41
2023-03-11T02:46:02.364Z,99768.41
2023-03-11T02:51:06.092Z,99783.22
2023-03-11T02:56:10.193Z,99792.19
2023-03-11T03:01:14.462Z,99782.94
2023-03-11T03:06:20.420Z,99799.91
2023-03-11T03:11:25.501Z,99806.25
2023-03-11T03:16:29.977Z,99815.19
2023-03-11T03:21:32.975Z,99821.94
2023-03-11T03:26:36.692Z,99833.59
2023-03-11T03:31:41.574Z,99841.38
2023-03-11T03:36:44.778Z,99852.72
2023-03-11T03:41:47.733Z,99861.31
2023-03-11T03:46:52.694Z,99869.09
2023-03-11T03:51:55.836Z,99873.22
2023-03-11T03:57:05.274Z,99889.94
2023-03-11T04:02:13.464Z,99894.44
2023-03-11T04:07:16.747Z,99904.41
2023-03-11T04:12:19.740Z,99902.34
2023-03-11T04:17:24.330Z,99909.50
2023-03-11T04:22:29.320Z,99918.19
2023-03-11T04:27:32.502Z,99919.84
2023-03-11T04:32:37.501Z,99910.91
2023-03-11T04:37:40.779Z,99921.03
2023-03-11T04:42:43.746Z,99929.25
2023-03-11T04:47:49.886Z,99935.47
2023-03-11T04:52:53.282Z,99944.09
2023-03-11T04:57:56.345Z,99955.00
2023-03-11T05:03:02.007Z,99954.63
2023-03-11T05:08:06.108Z,99967.63
2023-03-11T05:13:10.341Z,99972.13
2023-03-11T05:18:17.058Z,99989.91
2023-03-11T05:23:20.597Z,100000.91
2023-03-11T05:28:23.626Z,100003.84
2023-03-11T05:33:35.215Z,100024.47
2023-03-11T05:38:39.408Z,100025.84
2023-03-11T05:43:42.263Z,100038.72
2023-03-11T05:48:46.670Z,100049.66
2023-03-11T05:53:50.277Z,100060.41
2023-03-11T05:59:01.155Z,100060.44
2023-03-11T06:04:08.841Z,100064.81
2023-03-11T06:09:13.851Z,100074.09
2023-03-11T06:14:18.106Z,100068.59
2023-03-11T06:19:25.958Z,100081.31
2023-03-11T06:24:28.920Z,100086.00
2023-03-11T06:29:32.086Z,100100.03
2023-03-11T06:34:37.542Z,100106.03
2023-03-11T06:39:40.734Z,100109.59
2023-03-11T06:44:44.952Z,100116.97
2023-03-11T06:49:51.225Z,100127.72
2023-03-11T06:54:54.573Z,100125.31
2023-03-11T06:59:57.660Z,100135.00
2023-03-11T07:05:03.212Z,100130.66
2023-03-11T07:10:07.649Z,100152.50
2023-03-11T07:15:12.517Z,100158.00
2023-03-11T07:20:18.943Z,100148.53
2023-03-11T07:25:21.968Z,100156.16
2023-03-11T07:30:24.799Z,100163.13
2023-03-11T07:35:28.998Z,100171.31
2023-03-11T07:40:32.182Z,100179.00
2023-03-11T07:45:35.049Z,100194.53
2023-03-11T07:50:39.180Z,100213.31
2023-03-11T07:55:42.153Z,100235.69
2023-03-11T08:00:44.894Z,100238.47
2023-03-11T08:05:49.344Z,100245.78
2023-03-11T08:10:52.119Z,100260.09
2023-03-11T08:15:54.871Z,100271.44
2023-03-11T08:20:59.298Z,100282.72
2023-03-11T08:26:04.761Z,100291.69
2023-03-11T08:31:14.267Z,100291.09
2023-03-11T08:36:19.691Z,100300.41
2023-03-11T08:41:22.411Z,100306.97
2023-03-11T08:46:27.571Z,100312.22
2023-03-11T08:51:33.776Z,100324.53
2023-03-11T08:56:36.511Z,100325.00
2023-03-11T09:01:39.263Z,100332.22
2023-03-11T09:06:45.304Z,100332.22
2023-03-11T09:11:48.265Z,100332.75
2023-03-11T09:16:51.037Z,100343.97
2023-03-11T09:21:55.203Z,100344.00
2023-03-11T09:26:57.977Z,100344.72
2023-03-11T09:32:00.929Z,100354.56
2023-03-11T09:37:05.036Z,100355.50
2023-03-11T09:42:20.080Z,100350.16
2023-03-11T09:47:42.600Z,100361.44
2023-03-11T09:52:56.458Z,100360.47
2023-03-11T09:58:03.007Z,100362.50
2023-03-11T10:03:14.057Z,100369.38
2023-03-11T10:08:26.405Z,100384.84
2023-03-11T10:13:36.288Z,100380.13
2023-03-11T10:19:03.211Z,100382.94
2023-03-11T10:24:18.983Z,100384.72
2023-03-11T10:29:27.487Z,100385.16
2023-03-11T10:34:38.243Z,100378.28
2023-03-11T10:39:42.477Z,100387.53
2023-03-11T10:44:45.397Z,100382.91
2023-03-11T10:49:48.197Z,100383.13
2023-03-11T10:55:02.846Z,100393.06
2023-03-11T11:00:12.335Z,100389.75
2023-03-11T11:05:30.010Z,100386.75
2023-03-11T11:10:36.886Z,100388.06
2023-03-11T11:15:42.316Z,100389.97
2023-03-11T11:20:56.187Z,100392.09
2023-03-11T11:26:04.574Z,100386.91
2023-03-11T11:31:19.884Z,100382.47
2023-03-11T11:36:26.897Z,100380.38
2023-03-11T11:41:34.813Z,100382.78
2023-03-11T11:46:40.841Z,100373.72
2023-03-11T11:51:48.204Z,100373.38
2023-03-11T11:56:52.367Z,100368.19
2023-03-11T12:02:05.074Z,100365.31
2023-03-11T12:07:19.629Z,100360.63
2023-03-11T12:12:31.320Z,100373.38
2023-03-11T12:17:38.278Z,100372.47
2023-03-11T12:23:05.650Z,100361.34
2023-03-11T12:28:19.895Z,100366.25
2023-03-11T12:33:32.115Z,100372.81
2023-03-11T12:38:36.748Z,100373.03
2023-03-11T12:44:29.755Z,100365.09
2023-03-11T12:49:34.246Z,100372.16
2023-03-11T12:54:39.492Z,100369.06
2023-03-11T13:00:12.368Z,100379.81
2023-03-11T13:05:23.827Z,100367.56
2023-03-11T13:10:40.062Z,100371.81
2023-03-11T13:15:44.255Z,100379.91
2023-03-11T13:20:59.176Z,100376.00
2023-03-11T13:26:30.487Z,100371.25
2023-03-11T13:31:46.296Z,100366.81
2023-03-11T13:37:05.696Z,100369.91
2023-03-11T13:42:18.492Z,100368.16
2023-03-11T13:47:24.449Z,100375.63
2023-03-11T13:52:32.438Z,100389.75
2023-03-11T13:57:36.973Z,100378.41
2023-03-11T14:02:46.540Z,100390.63
2023-03-11T14:07:49.286Z,100395.13
2023-03-11T14:12:52.424Z,100397.34
2023-03-11T14:18:26.059Z,100387.94
2023-03-11T14:23:32.395Z,100387.47
2023-03-11T14:28:38.875Z,100394.03
2023-03-11T14:33:42.995Z,100398.28
2023-03-11T14:38:47.675Z,100394.66
2023-03-11T14:43:54.570Z,100397.25
2023-03-11T14:49:01.720Z,100391.13
2023-03-11T14:54:09.326Z,100401.31
2023-03-11T14:59:16.726Z,100401.06
2023-03-11T15:04:31.433Z,100410.22
2023-03-11T15:09:34.580Z,100406.19
2023-03-11T15:14:49.394Z,100403.81
2023-03-11T15:19:53.781Z,100401.97
2023-03-11T15:24:58.881Z,100395.13
2023-03-11T15:30:03.770Z,100397.56
2023-03-11T15:35:17.753Z,100384.56
2023-03-11T15:40:30.065Z,100384.91
2023-03-11T15:45:38.182Z,100392.75
2023-03-11T15:50:53.619Z,100393.25
2023-03-11T15:56:06.884Z,100408.97
2023-03-11T16:01:10.842Z,100426.81
2023-03-11T16:06:14.961Z,100429.53
2023-03-11T16:11:18.778Z,100441.03
2023-03-11T16:16:22.341Z,100424.06
2023-03-11T16:21:34.144Z,100445.84
2023-03-11T16:26:37.080Z,100449.63
2023-03-11T16:31:39.864Z,100458.59
2023-03-11T16:36:43.959Z,100455.81
2023-03-11T16:41:46.730Z,100460.22
2023-03-11T16:46:49.574Z,100465.56
2023-03-11T16:51:53.750Z,100476.66
2023-03-11T16:56:56.635Z,100474.59
2023-03-11T17:01:59.567Z,100477.53
2023-03-11T17:07:03.796Z,100482.75
2023-03-11T17:12:07.600Z,100491.63
2023-03-11T17:17:10.436Z,100485.41
2023-03-11T17:22:15.357Z,100483.25
2023-03-11T17:27:18.110Z,100487.25
2023-03-11T17:32:21.508Z,100501.81
2023-03-11T17:37:26.025Z,100494.88
2023-03-11T17:42:28.888Z,100498.88
2023-03-11T17:47:33.182Z,100503.56
2023-03-11T17:52:37.289Z,100508.78
2023-03-11T17:57:45.525Z,100511.59
2023-03-11T18:02:51.214Z,100507.81
2023-03-11T18:07:55.415Z,100510.25
2023-03-11T18:12:58.176Z,100515.34
2023-03-11T18:18:01.216Z,100507.41
2023-03-11T18:23:05.911Z,100512.00
2023-03-11T18:28:08.656Z,100521.75
2023-03-11T18:33:11.609Z,100517.16
2023-03-11T18:38:15.972Z,100528.53
2023-03-11T18:43:18.762Z,100527.16
2023-03-11T18:48:21.509Z,100524.53
2023-03-11T18:53:25.827Z,100528.25
2023-03-11T18:58:28.942Z,100532.00
2023-03-11T19:03:31.726Z,100531.78
2023-03-11T19:08:35.882Z,100537.66
2023-03-11T19:13:46.956Z,100537.56
2023-03-11T19:18:51.344Z,100539.16
2023-03-11T19:23:56.493Z,100537.47
2023-03-11T19:28:59.294Z,100535.56
2023-03-11T19:34:02.075Z,100544.22
2023-03-11T19:39:06.500Z,100541.44
2023-03-11T19:44:09.255Z,100546.03
2023-03-11T19:49:12.116Z,100546.94
2023-03-11T19:54:17.119Z,100546.22
2023-03-11T19:59:19.873Z,100559.09
2023-03-11T20:04:22.676Z,100561.25
2023-03-11T20:09:27.023Z,100553.59
2023-03-11T20:14:32.175Z,100555.06
2023-03-11T20:19:34.999Z,100564.06
2023-03-11T20:24:39.620Z,100560.88
2023-03-11T20:29:42.452Z,100570.84
2023-03-11T20:34:45.308Z,100566.38
2023-03-11T20:39:49.625Z,100571.94
2023-03-11T20:44:52.753Z,100563.88
2023-03-11T20:49:56.912Z,100581.13
2023-03-11T20:55:01.233Z,100587.53
2023-03-11T21:00:08.151Z,100589.84
2023-03-11T21:05:12.570Z,100589.94
2023-03-11T21:10:17.433Z,100594.47
2023-03-11T21:15:20.502Z,100588.19
2023-03-11T21:20:23.380Z,100587.88
2023-03-11T21:25:28.498Z,100599.63
2023-03-11T21:30:31.252Z,100602.84
2023-03-11T21:35:34.337Z,100604.75
2023-03-11T21:40:38.639Z,100603.09
2023-03-11T21:45:42.827Z,100605.81
2023-03-11T21:50:45.723Z,100614.69
2023-03-11T21:55:51.878Z,100614.94
2023-03-11T22:00:54.786Z,100609.03
2023-03-11T22:05:58.477Z,100610.03
2023-03-11T22:11:03.043Z,100617.25
2023-03-11T22:16:07.867Z,100618.25
2023-03-11T22:21:11.097Z,100620.94
2023-03-11T22:26:16.005Z,100622.06
2023-03-11T22:31:19.252Z,100616.25
2023-03-11T22:36:22.104Z,100613.59
2023-03-11T22:41:26.199Z,100609.91
2023-03-11T22:46:30.701Z,100608.84
2023-03-11T22:51:34.641Z,100617.09
2023-03-11T22:56:38.978Z,100629.94
2023-03-11T23:01:41.699Z,100626.88
2023-03-11T23:06:44.482Z,100627.88
2023-03-11T23:11:48.650Z,100646.31
2023-03-11T23:16:51.449Z,100644.75
2023-03-11T23:21:54.169Z,100643.53
2023-03-11T23:26:58.857Z,100643.06
2023-03-11T23:32:01.619Z,100659.88
2023-03-11T23:37:05.555Z,100666.81
2023-03-11T23:42:24.545Z,100666.69
2023-03-11T23:47:28.643Z,100664.13
2023-03-11T23:52:31.421Z,100676.28
2023-03-11T23:57:36.988Z,100677.97
